Time;durP1;ratioP1;P1;durP2;ratioP2;P2;SDS_P1;SDS_P2;PMS_P1;PMS_P2;Temp;Humidity;BMP_temperature;BMP_pressure;BME280_temperature;BME280_humidity;BME280_pressure;Samples;Min_cycle;Max_cycle;Signal;HPM_P1;HPM_P2
2021/12/24 00:00:01;;;;;;;157.30;38.30;;;;;;;;;;5143457;27;20027;-68
2021/12/24 00:02:27;;;;;;;163.10;39.88;;;;;;;;;;5161279;27;20027;-68
2021/12/24 00:04:53;;;;;;;161.77;37.30;;;;;;;;;;5143599;27;20026;-68
2021/12/24 00:07:19;;;;;;;160.57;39.15;;;;;;;;;;5143213;27;20024;-69
2021/12/24 00:09:46;;;;;;;158.57;37.63;;;;;;;;;;5143516;27;20035;-69
2021/12/24 00:12:17;;;;;;;155.15;37.90;;;;;;;;;;5125390;27;20030;-69
2021/12/24 00:14:48;;;;;;;152.27;39.35;;;;;;;;;;5161187;27;20051;-71
2021/12/24 00:17:16;;;;;;;176.65;38.10;;;;;;;;;;5143277;27;20031;-70
2021/12/24 00:19:59;;;;;;;163.30;38.63;;;;;;;;;;5126525;27;20039;-69
2021/12/24 00:36:09;;;;;;;186.38;39.03;;;;;;;;;;5142660;27;20039;-68
2021/12/24 00:38:35;;;;;;;169.77;37.33;;;;;;;;;;5160459;27;20110;-68
2021/12/24 00:41:01;;;;;;;157.40;38.97;;;;;;;;;;5142858;27;20034;-67
2021/12/24 00:43:27;;;;;;;153.82;37.42;;;;;;;;;;5142757;27;20027;-69
2021/12/24 00:45:53;;;;;;;156.75;36.78;;;;;;;;;;5142836;27;20047;-66
2021/12/24 00:48:19;;;;;;;148.15;35.83;;;;;;;;;;5159808;27;20031;-69
2021/12/24 00:56:11;;;;;;;150.38;34.25;;;;;;;;;;5141261;27;20064;-67
2021/12/24 00:58:38;;;;;;;138.77;34.50;;;;;;;;;;5125044;27;20039;-67
2021/12/24 01:01:05;;;;;;;136.10;34.28;;;;;;;;;;5142018;27;20043;-67
2021/12/24 01:03:31;;;;;;;116.65;32.42;;;;;;;;;;5142127;27;20103;-67
2021/12/24 01:05:57;;;;;;;118.47;32.58;;;;;;;;;;5142354;27;20050;-67
2021/12/24 01:08:23;;;;;;;114.22;32.08;;;;;;;;;;5159943;27;20027;-68
2021/12/24 01:10:58;;;;;;;110.88;31.45;;;;;;;;;;5159723;27;20081;-69
2021/12/24 01:13:25;;;;;;;104.03;29.80;;;;;;;;;;5142530;27;20080;-68
2021/12/24 01:15:59;;;;;;;102.80;30.27;;;;;;;;;;5142325;27;20096;-68
2021/12/24 01:18:40;;;;;;;111.13;30.05;;;;;;;;;;5159864;27;20035;-68
2021/12/24 01:21:39;;;;;;;99.88;30.05;;;;;;;;;;5142470;27;20050;-68
2021/12/24 01:24:10;;;;;;;94.32;27.80;;;;;;;;;;5159740;27;20039;-68
2021/12/24 01:26:43;;;;;;;85.38;27.08;;;;;;;;;;5125147;27;20035;-69
2021/12/24 01:42:48;;;;;;;81.10;25.88;;;;;;;;;;5142069;27;20062;-68
2021/12/24 01:45:17;;;;;;;80.25;25.95;;;;;;;;;;5141880;28;20030;-68
2021/12/24 01:47:43;;;;;;;71.85;24.05;;;;;;;;;;5124860;28;20031;-68
2021/12/24 01:50:10;;;;;;;77.90;25.77;;;;;;;;;;5141170;28;20039;-68
2021/12/24 01:52:38;;;;;;;80.50;26.65;;;;;;;;;;5158675;27;20055;-69
2021/12/24 01:55:04;;;;;;;82.50;26.73;;;;;;;;;;5124447;27;20027;-69
2021/12/24 01:57:32;;;;;;;78.43;25.67;;;;;;;;;;5140858;27;20057;-68
2021/12/24 01:59:57;;;;;;;69.88;24.40;;;;;;;;;;5123732;28;20057;-68
2021/12/24 02:02:23;;;;;;;75.78;25.50;;;;;;;;;;5159270;27;20059;-69
2021/12/24 02:04:49;;;;;;;67.07;24.02;;;;;;;;;;5138787;28;20027;-69
2021/12/24 02:07:15;;;;;;;70.10;24.17;;;;;;;;;;5121097;28;20058;-68
2021/12/24 02:09:41;;;;;;;61.35;22.48;;;;;;;;;;5139351;28;20039;-69
2021/12/24 02:12:09;;;;;;;56.63;21.33;;;;;;;;;;5138750;28;20047;-68
2021/12/24 02:14:38;;;;;;;52.38;20.00;;;;;;;;;;5121073;28;20039;-68
2021/12/24 02:28:36;;;;;;;46.78;20.35;;;;;;;;;;5095354;28;20044;-67
2021/12/24 02:31:03;;;;;;;42.25;17.75;;;;;;;;;;5079242;28;20059;-68
2021/12/24 02:33:29;;;;;;;45.17;18.48;;;;;;;;;;5095177;28;20024;-68
2021/12/24 02:35:55;;;;;;;44.25;18.60;;;;;;;;;;5098290;28;20063;-69
2021/12/24 02:38:21;;;;;;;45.55;18.73;;;;;;;;;;5100408;28;20048;-69
2021/12/24 02:40:48;;;;;;;44.83;18.48;;;;;;;;;;5082086;28;20088;-69
2021/12/24 02:43:17;;;;;;;45.70;17.75;;;;;;;;;;5083605;28;20063;-68
2021/12/24 02:45:44;;;;;;;43.28;17.70;;;;;;;;;;5066687;28;20035;-69
2021/12/24 02:48:35;;;;;;;38.70;17.27;;;;;;;;;;5082988;28;20040;-68
2021/12/24 02:56:25;;;;;;;39.38;16.52;;;;;;;;;;5167418;27;20060;-69
2021/12/24 02:58:51;;;;;;;41.45;16.52;;;;;;;;;;5136940;27;20023;-69
2021/12/24 03:01:19;;;;;;;38.78;16.42;;;;;;;;;;5183051;27;20031;-69
2021/12/24 03:03:48;;;;;;;38.60;16.73;;;;;;;;;;5182929;27;20039;-69
2021/12/24 03:06:15;;;;;;;38.85;15.23;;;;;;;;;;5182891;27;20034;-69
2021/12/24 03:08:41;;;;;;;41.88;17.00;;;;;;;;;;5182359;27;20050;-69
2021/12/24 03:11:07;;;;;;;45.17;16.42;;;;;;;;;;5182958;27;20025;-69
2021/12/24 03:13:36;;;;;;;45.33;17.92;;;;;;;;;;5131859;27;20047;-68
2021/12/24 03:16:02;;;;;;;39.20;15.70;;;;;;;;;;5158689;27;20110;-69
2021/12/24 03:18:31;;;;;;;37.67;16.42;;;;;;;;;;5160989;27;20070;-68
2021/12/24 03:23:46;;;;;;;44.75;17.80;;;;;;;;;;5144044;27;20038;-69
2021/12/24 03:26:13;;;;;;;43.97;16.63;;;;;;;;;;5143574;27;20038;-69
2021/12/24 03:28:39;;;;;;;39.90;16.63;;;;;;;;;;5161501;27;20057;-68
2021/12/24 03:31:06;;;;;;;39.15;15.85;;;;;;;;;;5161755;27;20068;-68
2021/12/24 03:33:33;;;;;;;36.03;15.65;;;;;;;;;;5144007;27;20056;-68
2021/12/24 03:35:59;;;;;;;39.17;15.15;;;;;;;;;;5161903;27;20078;-68
2021/12/24 03:38:25;;;;;;;40.88;16.00;;;;;;;;;;5143524;27;20059;-67
2021/12/24 03:40:51;;;;;;;35.92;14.32;;;;;;;;;;5143923;27;20043;-68
2021/12/24 03:43:18;;;;;;;37.72;14.73;;;;;;;;;;5144084;27;20086;-69
2021/12/24 03:48:25;;;;;;;35.50;14.10;;;;;;;;;;5143778;27;20043;-69
2021/12/24 03:51:44;;;;;;;37.58;14.70;;;;;;;;;;5161720;27;20027;-69
2021/12/24 03:56:25;;;;;;;38.05;14.65;;;;;;;;;;5161346;27;20023;-69
2021/12/24 03:58:51;;;;;;;45.28;14.48;;;;;;;;;;5143782;27;20052;-68
2021/12/24 04:01:17;;;;;;;32.63;14.15;;;;;;;;;;5143560;27;20019;-68
2021/12/24 04:03:43;;;;;;;33.78;13.18;;;;;;;;;;5161554;27;20034;-69
2021/12/24 04:06:09;;;;;;;28.38;12.55;;;;;;;;;;5161195;27;20019;-69
2021/12/24 04:08:35;;;;;;;29.15;12.02;;;;;;;;;;5143277;27;20048;-68
2021/12/24 04:11:01;;;;;;;26.73;11.55;;;;;;;;;;5143396;27;20058;-68
2021/12/24 04:13:27;;;;;;;26.90;12.32;;;;;;;;;;5142750;27;20038;-68
2021/12/24 04:15:53;;;;;;;32.45;12.57;;;;;;;;;;5125974;27;20023;-68
2021/12/24 04:18:34;;;;;;;33.83;13.55;;;;;;;;;;5142915;27;20051;-69
2021/12/24 04:26:31;;;;;;;31.80;14.10;;;;;;;;;;5143129;27;20052;-68
2021/12/24 04:28:58;;;;;;;35.92;14.43;;;;;;;;;;5142809;27;20087;-68
2021/12/24 04:31:38;;;;;;;42.88;16.35;;;;;;;;;;5142910;27;20029;-68
2021/12/24 04:34:04;;;;;;;45.53;16.58;;;;;;;;;;5142531;27;20043;-68
2021/12/24 05:03:11;;;;;;;70.07;22.27;;;;;;;;;;5160026;27;20035;-68
2021/12/24 05:08:39;;;;;;;61.40;23.50;;;;;;;;;;5111381;27;20027;-69
2021/12/24 05:11:10;;;;;;;64.45;24.45;;;;;;;;;;5160287;27;20084;-69
2021/12/24 05:13:36;;;;;;;73.53;24.55;;;;;;;;;;5159949;27;20042;-68
2021/12/24 05:16:13;;;;;;;66.65;22.65;;;;;;;;;;5159110;27;20033;-68
2021/12/24 05:21:33;;;;;;;74.40;25.33;;;;;;;;;;5141476;28;20035;-69
2021/12/24 05:24:22;;;;;;;83.85;25.35;;;;;;;;;;5157703;27;20027;-69
2021/12/24 05:26:50;;;;;;;78.93;24.98;;;;;;;;;;5151685;27;20051;-68
2021/12/24 05:29:16;;;;;;;72.03;25.50;;;;;;;;;;5141511;28;20111;-68
2021/12/24 05:31:42;;;;;;;68.47;23.48;;;;;;;;;;5141891;27;20049;-68
2021/12/24 05:34:08;;;;;;;71.88;24.38;;;;;;;;;;5159804;27;20042;-68
2021/12/24 05:36:34;;;;;;;63.35;22.58;;;;;;;;;;5141966;28;20099;-69
2021/12/24 05:39:00;;;;;;;66.05;23.85;;;;;;;;;;5141997;28;20043;-69
2021/12/24 05:41:27;;;;;;;66.65;24.40;;;;;;;;;;5142190;28;20086;-68
2021/12/24 05:43:53;;;;;;;63.15;22.15;;;;;;;;;;5159628;27;20049;-69
2021/12/24 05:46:19;;;;;;;63.70;22.60;;;;;;;;;;5142087;27;20047;-68
2021/12/24 05:48:45;;;;;;;56.10;22.73;;;;;;;;;;5141349;27;20031;-68
2021/12/24 05:51:11;;;;;;;59.58;21.75;;;;;;;;;;5140759;28;20051;-68
2021/12/24 05:53:38;;;;;;;75.47;25.80;;;;;;;;;;5140857;28;20072;-68
2021/12/24 05:56:04;;;;;;;63.97;23.30;;;;;;;;;;5158478;28;20078;-68
2021/12/24 05:58:30;;;;;;;70.15;25.38;;;;;;;;;;5123945;28;20070;-68
2021/12/24 06:00:57;;;;;;;70.82;26.40;;;;;;;;;;5141582;28;20043;-67
2021/12/24 06:03:23;;;;;;;71.15;24.42;;;;;;;;;;5141094;28;20035;-67
2021/12/24 06:05:49;;;;;;;68.30;24.05;;;;;;;;;;5141638;28;20049;-67
2021/12/24 06:08:15;;;;;;;59.42;21.65;;;;;;;;;;5141655;27;20027;-67
2021/12/24 06:10:42;;;;;;;64.75;24.65;;;;;;;;;;5161199;27;20016;-67
2021/12/24 06:13:08;;;;;;;69.57;23.08;;;;;;;;;;5163608;27;20073;-67
2021/12/24 06:15:42;;;;;;;62.67;24.55;;;;;;;;;;5162700;27;20025;-68
2021/12/24 06:18:19;;;;;;;63.78;24.80;;;;;;;;;;5145701;27;20047;-68
2021/12/24 06:20:45;;;;;;;58.78;23.38;;;;;;;;;;5163421;27;20035;-68
2021/12/24 06:23:11;;;;;;;61.72;23.42;;;;;;;;;;5145818;27;20041;-69
2021/12/24 06:25:37;;;;;;;64.88;22.50;;;;;;;;;;5128049;27;20023;-68
2021/12/24 06:28:03;;;;;;;59.22;22.65;;;;;;;;;;5161209;27;20043;-67
2021/12/24 06:30:29;;;;;;;59.28;21.95;;;;;;;;;;5161421;27;20034;-67
2021/12/24 06:32:56;;;;;;;52.75;20.55;;;;;;;;;;5144232;27;20115;-68
2021/12/24 06:35:24;;;;;;;39.78;16.98;;;;;;;;;;5145246;27;20035;-68
2021/12/24 06:37:50;;;;;;;45.60;19.70;;;;;;;;;;5128062;27;20039;-69
2021/12/24 06:40:16;;;;;;;46.25;17.45;;;;;;;;;;5162504;27;20038;-68
2021/12/24 06:42:42;;;;;;;41.90;17.83;;;;;;;;;;5144615;27;20031;-68
2021/12/24 06:45:08;;;;;;;41.53;18.67;;;;;;;;;;5144752;27;20140;-70
2021/12/24 06:47:34;;;;;;;51.35;20.08;;;;;;;;;;5145009;27;20031;-69
2021/12/24 06:50:00;;;;;;;45.38;18.52;;;;;;;;;;5162706;27;20035;-70
2021/12/24 06:52:26;;;;;;;50.00;18.63;;;;;;;;;;5127384;27;20332;-70
2021/12/24 06:54:52;;;;;;;44.78;17.88;;;;;;;;;;5127638;27;20027;-70
2021/12/24 06:57:19;;;;;;;44.80;19.10;;;;;;;;;;5127686;27;20025;-68
2021/12/24 06:59:46;;;;;;;42.88;19.00;;;;;;;;;;5145079;27;20047;-69
2021/12/24 07:02:12;;;;;;;45.20;16.63;;;;;;;;;;5144605;27;20026;-69
2021/12/24 07:04:38;;;;;;;39.22;17.45;;;;;;;;;;5144929;27;20031;-70
2021/12/24 07:07:04;;;;;;;55.70;19.52;;;;;;;;;;5162303;27;20023;-70
2021/12/24 07:09:30;;;;;;;46.92;19.50;;;;;;;;;;5144446;27;20023;-68
2021/12/24 07:11:56;;;;;;;43.75;17.42;;;;;;;;;;5144629;27;20046;-70
2021/12/24 07:14:25;;;;;;;42.40;17.80;;;;;;;;;;5144057;27;20062;-71
2021/12/24 07:16:51;;;;;;;45.00;17.52;;;;;;;;;;5144217;27;20016;-70
2021/12/24 07:19:17;;;;;;;46.28;19.20;;;;;;;;;;5162083;27;20030;-71
2021/12/24 07:21:43;;;;;;;44.55;17.45;;;;;;;;;;5127001;27;20035;-71
2021/12/24 07:24:10;;;;;;;46.03;17.65;;;;;;;;;;5144541;27;20034;-70
2021/12/24 07:26:36;;;;;;;46.33;15.63;;;;;;;;;;5160980;27;20042;-69
2021/12/24 07:29:02;;;;;;;42.17;16.25;;;;;;;;;;5161587;27;20046;-70
2021/12/24 07:31:28;;;;;;;40.22;16.27;;;;;;;;;;5161994;27;20031;-71
2021/12/24 07:33:54;;;;;;;41.13;15.30;;;;;;;;;;5144127;27;20062;-71
2021/12/24 07:36:20;;;;;;;56.33;16.65;;;;;;;;;;5127118;27;20052;-71
2021/12/24 07:38:46;;;;;;;38.80;14.75;;;;;;;;;;5126493;27;20199;-69
2021/12/24 07:41:14;;;;;;;31.05;12.65;;;;;;;;;;5142702;27;20034;-70
2021/12/24 07:43:40;;;;;;;32.17;13.27;;;;;;;;;;5161509;27;20074;-70
2021/12/24 07:46:06;;;;;;;31.98;13.15;;;;;;;;;;5161178;27;20047;-69
2021/12/24 07:48:35;;;;;;;42.60;14.38;;;;;;;;;;5157934;27;20027;-68
2021/12/24 07:53:27;;;;;;;34.83;12.35;;;;;;;;;;5155431;27;20043;-68
2021/12/24 07:55:55;;;;;;;36.60;13.35;;;;;;;;;;5135496;27;20098;-68
2021/12/24 07:58:22;;;;;;;40.20;13.48;;;;;;;;;;5135520;27;20054;-68
2021/12/24 08:00:48;;;;;;;30.05;11.65;;;;;;;;;;5122362;27;20026;-69
2021/12/24 08:03:14;;;;;;;32.92;12.73;;;;;;;;;;5160979;27;20039;-70
2021/12/24 08:05:41;;;;;;;29.00;11.32;;;;;;;;;;5143526;27;20031;-70
2021/12/24 08:08:08;;;;;;;37.20;12.85;;;;;;;;;;5142785;27;20196;-69
2021/12/24 08:10:34;;;;;;;46.22;13.70;;;;;;;;;;5142223;27;20086;-70
2021/12/24 08:13:01;;;;;;;28.42;11.02;;;;;;;;;;5142329;27;20035;-69
2021/12/24 08:15:27;;;;;;;35.97;13.13;;;;;;;;;;5159438;27;20076;-69
2021/12/24 08:17:53;;;;;;;43.78;11.95;;;;;;;;;;5124643;27;20038;-70
2021/12/24 08:20:24;;;;;;;53.50;14.52;;;;;;;;;;5121993;27;20107;-70
2021/12/24 08:22:50;;;;;;;28.95;9.88;;;;;;;;;;5140878;27;20056;-69
2021/12/24 08:25:17;;;;;;;29.45;10.55;;;;;;;;;;5160481;27;20039;-70
2021/12/24 08:27:43;;;;;;;27.42;10.27;;;;;;;;;;5160081;27;20069;-71
2021/12/24 08:30:09;;;;;;;31.40;10.35;;;;;;;;;;5161062;27;20023;-70
2021/12/24 08:32:37;;;;;;;28.75;9.77;;;;;;;;;;5142222;27;20063;-71
2021/12/24 08:35:03;;;;;;;33.80;11.25;;;;;;;;;;5160336;27;20059;-70
2021/12/24 08:37:30;;;;;;;32.17;10.65;;;;;;;;;;5160243;27;20070;-70
2021/12/24 08:39:57;;;;;;;31.65;10.43;;;;;;;;;;5139610;27;20051;-67
2021/12/24 08:42:23;;;;;;;44.83;11.15;;;;;;;;;;5124335;27;20131;-67
2021/12/24 08:44:49;;;;;;;29.30;10.43;;;;;;;;;;5139741;27;20053;-68
2021/12/24 08:47:15;;;;;;;35.60;11.27;;;;;;;;;;5123886;27;20027;-67
2021/12/24 08:49:41;;;;;;;53.05;12.90;;;;;;;;;;5140643;27;20031;-70
2021/12/24 08:52:07;;;;;;;38.38;11.82;;;;;;;;;;5141054;27;20047;-68
2021/12/24 08:54:33;;;;;;;33.72;11.20;;;;;;;;;;5159107;27;20021;-68
2021/12/24 08:56:59;;;;;;;39.78;11.93;;;;;;;;;;5157571;27;20055;-67
2021/12/24 08:59:25;;;;;;;34.10;11.68;;;;;;;;;;5123379;27;20091;-67
2021/12/24 09:01:54;;;;;;;38.38;12.57;;;;;;;;;;5140556;27;20027;-68
2021/12/24 09:04:20;;;;;;;;;;;;;;;;;;5142580;27;20031;-70
2021/12/24 09:06:46;;;;;;;32.08;10.55;;;;;;;;;;5125078;27;19923;-69
2021/12/24 09:09:12;;;;;;;29.10;10.38;;;;;;;;;;5125366;27;20051;-71
2021/12/24 09:11:40;;;;;;;29.30;10.52;;;;;;;;;;5142421;27;20023;-71
2021/12/24 09:14:06;;;;;;;28.63;9.82;;;;;;;;;;5167419;27;20035;-70
2021/12/24 09:16:36;;;;;;;27.98;10.80;;;;;;;;;;5134100;27;20082;-71
2021/12/24 09:19:07;;;;;;;29.45;9.88;;;;;;;;;;5152452;27;20030;-71
2021/12/24 09:21:34;;;;;;;27.75;9.85;;;;;;;;;;5163074;27;20038;-70
2021/12/24 09:24:00;;;;;;;29.67;8.60;;;;;;;;;;5181106;27;20027;-70
2021/12/24 09:26:29;;;;;;;29.63;9.05;;;;;;;;;;5180574;27;20035;-72
2021/12/24 09:28:58;;;;;;;32.33;8.93;;;;;;;;;;5162581;27;20057;-70
2021/12/24 09:31:24;;;;;;;39.38;10.50;;;;;;;;;;5180649;27;20034;-71
2021/12/24 09:33:50;;;;;;;33.08;9.48;;;;;;;;;;5162540;27;20034;-70
2021/12/24 09:36:23;;;;;;;44.78;11.90;;;;;;;;;;5145173;27;20039;-68
2021/12/24 09:38:49;;;;;;;33.33;8.90;;;;;;;;;;5162633;27;20038;-68
2021/12/24 09:41:15;;;;;;;54.90;13.18;;;;;;;;;;5153064;27;20034;-69
2021/12/24 09:43:41;;;;;;;25.27;9.30;;;;;;;;;;5142428;27;20038;-70
2021/12/24 09:46:07;;;;;;;32.08;10.02;;;;;;;;;;5184760;27;20111;-69
2021/12/24 09:48:33;;;;;;;61.65;14.45;;;;;;;;;;5184843;27;20034;-69
2021/12/24 09:50:59;;;;;;;32.53;10.55;;;;;;;;;;5184991;27;20023;-69
2021/12/24 09:53:25;;;;;;;32.15;9.73;;;;;;;;;;5149731;27;20034;-70
2021/12/24 09:55:51;;;;;;;40.35;11.70;;;;;;;;;;5146017;27;20043;-69
2021/12/24 09:58:17;;;;;;;42.08;10.15;;;;;;;;;;5125316;27;20027;-69
2021/12/24 10:00:44;;;;;;;35.38;10.23;;;;;;;;;;5125309;28;20031;-69
2021/12/24 10:03:10;;;;;;;27.65;9.23;;;;;;;;;;5125584;28;20035;-69
2021/12/24 10:05:36;;;;;;;37.75;10.85;;;;;;;;;;5142843;27;20036;-69
2021/12/24 10:08:06;;;;;;;22.52;8.45;;;;;;;;;;5125102;27;20061;-69
2021/12/24 10:10:33;;;;;;;30.88;9.50;;;;;;;;;;5152220;27;20043;-69
2021/12/24 10:13:19;;;;;;;86.15;20.10;;;;;;;;;;5162782;27;20119;-68
2021/12/24 10:15:55;;;;;;;43.08;12.02;;;;;;;;;;5161650;27;20068;-65
2021/12/24 10:18:35;;;;;;;27.98;8.85;;;;;;;;;;5161231;27;20107;-66
2021/12/24 10:21:03;;;;;;;29.38;8.95;;;;;;;;;;5161479;27;20046;-66
2021/12/24 10:24:01;;;;;;;37.03;9.75;;;;;;;;;;5160673;27;20039;-66
2021/12/24 10:26:29;;;;;;;27.35;7.82;;;;;;;;;;5089325;28;20049;-66
2021/12/24 10:28:55;;;;;;;31.00;9.52;;;;;;;;;;5102854;28;20052;-66
2021/12/24 10:31:24;;;;;;;30.73;8.90;;;;;;;;;;5110312;28;20052;-66
2021/12/24 10:34:09;;;;;;;35.17;8.80;;;;;;;;;;5101269;28;20052;-67
2021/12/24 10:36:52;;;;;;;27.00;8.73;;;;;;;;;;5101840;28;20042;-69
2021/12/24 10:39:18;;;;;;;26.77;8.52;;;;;;;;;;5103352;28;20036;-68
2021/12/24 10:41:46;;;;;;;34.40;9.60;;;;;;;;;;5103298;28;20048;-69
2021/12/24 10:44:24;;;;;;;40.97;10.00;;;;;;;;;;5103624;28;20052;-69
2021/12/24 10:46:59;;;;;;;31.08;10.02;;;;;;;;;;5120377;28;20028;-67
2021/12/24 10:49:47;;;;;;;23.25;8.73;;;;;;;;;;5120091;28;20032;-68
2021/12/24 10:55:08;;;;;;;41.58;12.27;;;;;;;;;;5097320;28;20060;-67
2021/12/24 10:57:35;;;;;;;84.95;16.10;;;;;;;;;;5096690;28;20066;-68
2021/12/24 11:00:04;;;;;;;34.03;9.90;;;;;;;;;;5095143;28;20024;-68
2021/12/24 11:02:31;;;;;;;38.65;10.20;;;;;;;;;;5090469;27;20055;-67
2021/12/24 11:04:58;;;;;;;35.45;10.57;;;;;;;;;;5132678;27;20047;-67
2021/12/24 11:07:38;;;;;;;31.77;10.75;;;;;;;;;;5118208;27;20126;-67
2021/12/24 11:10:14;;;;;;;29.85;10.25;;;;;;;;;;5153922;27;20028;-67
2021/12/24 11:12:45;;;;;;;46.72;11.68;;;;;;;;;;5157106;27;20122;-67
2021/12/24 11:15:30;;;;;;;37.83;12.77;;;;;;;;;;5142076;27;20107;-67
2021/12/24 11:17:59;;;;;;;46.58;12.02;;;;;;;;;;5160556;27;20077;-67
2021/12/24 11:20:25;;;;;;;45.72;10.65;;;;;;;;;;5144686;27;20050;-68
2021/12/24 11:22:54;;;;;;;35.10;9.85;;;;;;;;;;5080428;28;20120;-68
2021/12/24 11:25:21;;;;;;;28.42;9.27;;;;;;;;;;5056771;28;20045;-68
2021/12/24 11:27:47;;;;;;;44.92;10.93;;;;;;;;;;5056872;28;20041;-68
2021/12/24 11:30:14;;;;;;;41.13;10.50;;;;;;;;;;5056670;28;20503;-67
2021/12/24 11:32:40;;;;;;;28.48;8.20;;;;;;;;;;5057144;28;20041;-68
2021/12/24 11:35:07;;;;;;;46.78;8.45;;;;;;;;;;5059165;28;20045;-68
2021/12/24 11:37:33;;;;;;;7.50;2.75;;;;;;;;;;5074766;28;20052;-66
2021/12/24 11:40:02;;;;;;;4.75;2.65;;;;;;;;;;5061978;28;20029;-67
2021/12/24 11:42:30;;;;;;;14.32;4.15;;;;;;;;;;5079198;28;20044;-66
2021/12/24 11:44:57;;;;;;;25.30;6.10;;;;;;;;;;5068811;28;20057;-66
2021/12/24 11:47:23;;;;;;;6.68;2.85;;;;;;;;;;5076388;28;20037;-66
2021/12/24 11:49:49;;;;;;;6.15;2.35;;;;;;;;;;5079003;28;20109;-67
2021/12/24 11:52:16;;;;;;;14.50;4.22;;;;;;;;;;5078478;28;20104;-67
2021/12/24 11:54:42;;;;;;;6.53;2.90;;;;;;;;;;5078487;28;20036;-68
2021/12/24 11:57:22;;;;;;;13.85;3.55;;;;;;;;;;5079500;28;20020;-69
2021/12/24 11:59:48;;;;;;;4.10;2.28;;;;;;;;;;5078954;28;20036;-68
2021/12/24 12:02:33;;;;;;;14.57;3.55;;;;;;;;;;5076707;28;20087;-67
2021/12/24 12:05:12;;;;;;;7.82;3.42;;;;;;;;;;5078526;28;20049;-70
2021/12/24 12:07:38;;;;;;;99.03;18.90;;;;;;;;;;5078114;28;20055;-70
2021/12/24 12:10:05;;;;;;;274.75;48.63;;;;;;;;;;5077821;28;20051;-70
2021/12/24 12:12:34;;;;;;;19.25;5.32;;;;;;;;;;5058353;28;20049;-68
2021/12/24 12:15:19;;;;;;;6.75;3.78;;;;;;;;;;5062004;28;20032;-68
2021/12/24 12:17:53;;;;;;;16.70;4.05;;;;;;;;;;5061889;28;20085;-70
2021/12/24 12:20:43;;;;;;;21.20;5.90;;;;;;;;;;5078585;28;20025;-70
2021/12/24 12:23:15;;;;;;;23.67;6.10;;;;;;;;;;5078700;28;20082;-70
2021/12/24 12:25:42;;;;;;;42.88;9.68;;;;;;;;;;5075843;28;20045;-67
2021/12/24 12:28:13;;;;;;;35.92;7.60;;;;;;;;;;5060211;28;20049;-67
2021/12/24 12:30:42;;;;;;;39.03;7.90;;;;;;;;;;5078517;28;20029;-66
2021/12/24 12:33:19;;;;;;;7.32;3.10;;;;;;;;;;5078337;28;20025;-68
2021/12/24 12:35:56;;;;;;;8.82;3.05;;;;;;;;;;5078268;28;20021;-69
2021/12/24 12:38:24;;;;;;;7.85;3.28;;;;;;;;;;5077865;28;20091;-67
2021/12/24 12:40:50;;;;;;;4.40;2.33;;;;;;;;;;5078138;28;20033;-68
2021/12/24 12:43:16;;;;;;;11.13;3.17;;;;;;;;;;5061863;28;20044;-68
2021/12/24 12:45:47;;;;;;;24.67;6.32;;;;;;;;;;5078401;28;20029;-69
2021/12/24 12:48:23;;;;;;;4.07;2.40;;;;;;;;;;5078265;28;20044;-69
2021/12/24 12:50:54;;;;;;;7.55;2.83;;;;;;;;;;5078829;28;20046;-70
2021/12/24 12:53:24;;;;;;;9.75;3.60;;;;;;;;;;5078284;28;20067;-69
2021/12/24 12:56:11;;;;;;;6.68;3.20;;;;;;;;;;5057727;28;20076;-69
2021/12/24 12:58:37;;;;;;;89.88;17.45;;;;;;;;;;5044262;28;20040;-67
2021/12/24 13:01:03;;;;;;;15.73;5.38;;;;;;;;;;5069205;28;20020;-69
2021/12/24 13:03:30;;;;;;;6.07;3.60;;;;;;;;;;5058507;28;20085;-69
2021/12/24 13:06:04;;;;;;;29.10;8.35;;;;;;;;;;5058076;28;20040;-69
2021/12/24 13:08:32;;;;;;;48.05;9.50;;;;;;;;;;5067272;28;20037;-68
2021/12/24 13:11:04;;;;;;;13.15;4.88;;;;;;;;;;5077453;28;20071;-68
2021/12/24 13:13:53;;;;;;;8.77;4.43;;;;;;;;;;5077277;28;20064;-68
2021/12/24 13:16:20;;;;;;;10.32;4.90;;;;;;;;;;5077921;28;20029;-68
2021/12/24 13:19:20;;;;;;;23.90;6.43;;;;;;;;;;5059872;28;20033;-68
2021/12/24 13:24:37;;;;;;;8.10;5.20;;;;;;;;;;5076048;28;20053;-67
2021/12/24 13:27:03;;;;;;;8.13;4.40;;;;;;;;;;5075812;28;20037;-67
2021/12/24 13:29:30;;;;;;;27.63;6.80;;;;;;;;;;5075733;28;20055;-67
2021/12/24 13:31:57;;;;;;;7.47;3.92;;;;;;;;;;5076210;28;20053;-67
2021/12/24 13:34:24;;;;;;;6.90;4.35;;;;;;;;;;5074713;28;20025;-67
2021/12/24 13:36:50;;;;;;;6.00;4.47;;;;;;;;;;5073001;28;20080;-67
2021/12/24 13:39:18;;;;;;;7.07;4.93;;;;;;;;;;5075858;28;20049;-67
2021/12/24 13:41:45;;;;;;;12.73;6.18;;;;;;;;;;5076185;28;20041;-68
2021/12/24 13:44:28;;;;;;;16.67;5.43;;;;;;;;;;5075640;28;20092;-67
2021/12/24 13:47:21;;;;;;;7.88;5.00;;;;;;;;;;5057582;28;20041;-69
2021/12/24 13:55:28;;;;;;;37.10;10.45;;;;;;;;;;5066945;28;20033;-67
2021/12/24 13:57:55;;;;;;;34.88;10.57;;;;;;;;;;5075254;28;20025;-68
2021/12/24 14:00:22;;;;;;;244.10;38.50;;;;;;;;;;5058127;28;20084;-69
2021/12/24 14:02:53;;;;;;;73.00;16.17;;;;;;;;;;5074559;28;20035;-70
2021/12/24 14:05:19;;;;;;;31.33;8.77;;;;;;;;;;5077284;28;20041;-71
2021/12/24 14:07:47;;;;;;;110.53;23.75;;;;;;;;;;5076678;28;20029;-72
2021/12/24 14:10:25;;;;;;;10.87;6.43;;;;;;;;;;5077086;28;20088;-71
2021/12/24 14:12:51;;;;;;;13.97;6.57;;;;;;;;;;5077629;28;20052;-68
2021/12/24 14:15:22;;;;;;;12.25;6.72;;;;;;;;;;5076395;28;20036;-69
2021/12/24 14:18:16;;;;;;;15.63;7.00;;;;;;;;;;5076552;28;20047;-69
2021/12/24 14:21:44;;;;;;;18.27;6.20;;;;;;;;;;5076375;28;20089;-70
2021/12/24 14:23:23;;;;;;;15.00;6.70;;;;;;;;;;5075957;28;20049;-70
2021/12/24 14:26:00;;;;;;;21.27;8.02;;;;;;;;;;5063978;28;20104;-69
2021/12/24 14:28:26;;;;;;;8.77;5.60;;;;;;;;;;5056329;28;20114;-70
2021/12/24 14:30:59;;;;;;;13.20;6.65;;;;;;;;;;5057827;28;20104;-71
2021/12/24 14:33:25;;;;;;;42.38;11.38;;;;;;;;;;5060542;28;20037;-70
2021/12/24 14:35:52;;;;;;;10.88;6.00;;;;;;;;;;5060972;28;20046;-69
2021/12/24 14:38:23;;;;;;;10.45;6.43;;;;;;;;;;5060743;28;20065;-69
2021/12/24 14:40:54;;;;;;;8.20;5.50;;;;;;;;;;5060357;28;20021;-69
2021/12/24 14:43:21;;;;;;;6.78;5.35;;;;;;;;;;5060515;28;20029;-68
2021/12/24 14:45:48;;;;;;;7.15;5.60;;;;;;;;;;5060375;28;20075;-70
2021/12/24 14:48:16;;;;;;;8.75;5.15;;;;;;;;;;5076846;28;20037;-69
2021/12/24 14:50:52;;;;;;;7.47;5.13;;;;;;;;;;5069770;28;20033;-70
2021/12/24 14:53:18;;;;;;;7.38;5.28;;;;;;;;;;5063680;28;20041;-69
2021/12/24 14:55:44;;;;;;;8.30;5.05;;;;;;;;;;5080387;28;20039;-70
2021/12/24 14:58:11;;;;;;;7.43;5.50;;;;;;;;;;5080336;28;20021;-68
2021/12/24 15:00:38;;;;;;;9.00;5.55;;;;;;;;;;5078226;28;20071;-67
2021/12/24 15:03:06;;;;;;;7.93;5.63;;;;;;;;;;5077245;28;20036;-68
2021/12/24 15:05:33;;;;;;;8.48;5.20;;;;;;;;;;5080141;28;20037;-69
2021/12/24 15:08:10;;;;;;;21.73;6.20;;;;;;;;;;5080333;28;20033;-66
2021/12/24 15:10:37;;;;;;;7.25;4.78;;;;;;;;;;5080476;28;20029;-68
2021/12/24 15:13:13;;;;;;;8.93;5.47;;;;;;;;;;5077928;28;20041;-68
2021/12/24 15:15:39;;;;;;;6.70;5.30;;;;;;;;;;5077816;28;20061;-67
2021/12/24 15:18:05;;;;;;;7.05;5.53;;;;;;;;;;5079818;28;20077;-66
2021/12/24 15:20:31;;;;;;;8.10;4.95;;;;;;;;;;5078108;28;20048;-66
2021/12/24 15:22:57;;;;;;;8.63;5.20;;;;;;;;;;5050915;28;20055;-69
2021/12/24 15:25:24;;;;;;;12.05;6.03;;;;;;;;;;5059299;28;20026;-66
2021/12/24 15:27:52;;;;;;;8.48;5.38;;;;;;;;;;5047252;28;20052;-66
2021/12/24 15:30:18;;;;;;;11.02;6.70;;;;;;;;;;5073118;28;20032;-70
2021/12/24 15:32:44;;;;;;;8.73;5.35;;;;;;;;;;5076686;28;20026;-68
2021/12/24 15:35:10;;;;;;;8.55;5.63;;;;;;;;;;5064361;28;20081;-70
2021/12/24 15:37:36;;;;;;;9.27;5.93;;;;;;;;;;5059961;28;20072;-70
2021/12/24 15:40:03;;;;;;;10.25;5.97;;;;;;;;;;5060292;28;20989;-70
2021/12/24 15:42:29;;;;;;;11.50;6.30;;;;;;;;;;5059384;28;20037;-69
2021/12/24 15:44:56;;;;;;;7.35;4.95;;;;;;;;;;5062161;28;20048;-67
2021/12/24 15:47:22;;;;;;;16.92;6.85;;;;;;;;;;5070708;28;20081;-67
2021/12/24 15:49:48;;;;;;;22.98;6.90;;;;;;;;;;5078002;28;20052;-67
2021/12/24 15:52:14;;;;;;;10.13;6.25;;;;;;;;;;5061652;28;20025;-66
2021/12/24 15:54:40;;;;;;;9.18;5.85;;;;;;;;;;5062135;28;20037;-67
2021/12/24 15:57:06;;;;;;;10.30;6.55;;;;;;;;;;5079272;28;20104;-66
2021/12/24 15:59:33;;;;;;;9.02;5.97;;;;;;;;;;5078094;28;20053;-66
2021/12/24 16:02:00;;;;;;;11.32;6.15;;;;;;;;;;5077324;28;20071;-66
2021/12/24 16:04:26;;;;;;;11.80;7.68;;;;;;;;;;5078029;28;20148;-66
2021/12/24 16:06:52;;;;;;;11.23;8.48;;;;;;;;;;5067786;28;20037;-68
2021/12/24 16:09:23;;;;;;;11.63;8.20;;;;;;;;;;5058967;28;20030;-68
2021/12/24 16:11:49;;;;;;;13.00;9.52;;;;;;;;;;5058589;28;20077;-67
2021/12/24 16:14:16;;;;;;;27.70;16.90;;;;;;;;;;5059468;28;20036;-68
2021/12/24 16:16:44;;;;;;;21.65;13.30;;;;;;;;;;5059608;28;20072;-67
2021/12/24 16:19:14;;;;;;;14.05;9.82;;;;;;;;;;5058902;28;20045;-67
2021/12/24 16:21:41;;;;;;;21.50;11.90;;;;;;;;;;5057327;28;20109;-71